createdAt,value
2018-12-23T00:00:39.686Z,6.00
2018-12-23T00:01:39.669Z,5.50
2018-12-23T00:02:39.637Z,5.50
2018-12-23T00:03:39.613Z,5.70
2018-12-23T00:04:39.593Z,5.50
2018-12-23T00:05:39.639Z,5.40
2018-12-23T00:06:39.545Z,5.90
2018-12-23T00:07:39.527Z,6.40
2018-12-23T00:08:39.507Z,6.30
2018-12-23T00:09:39.483Z,5.80
2018-12-23T00:10:39.453Z,5.70
2018-12-23T00:11:39.451Z,5.80
2018-12-23T00:12:39.410Z,6.60
2018-12-23T00:13:39.382Z,6.10
2018-12-23T00:14:39.365Z,6.30
2018-12-23T00:15:39.346Z,6.60
2018-12-23T00:16:39.318Z,6.20
2018-12-23T00:17:39.299Z,6.20
2018-12-23T00:18:39.268Z,6.30
2018-12-23T00:19:39.249Z,6.90
2018-12-23T00:20:39.223Z,6.90
2018-12-23T00:21:39.206Z,7.50
2018-12-23T00:22:39.183Z,7.30
2018-12-23T00:23:39.155Z,7.70
2018-12-23T00:24:39.134Z,7.60
2018-12-23T00:25:39.109Z,7.60
2018-12-23T00:26:39.086Z,7.70
2018-12-23T00:27:39.077Z,8.40
2018-12-23T00:28:39.039Z,8.20
2018-12-23T00:29:39.061Z,8.00
2018-12-23T00:30:38.995Z,8.50
2018-12-23T00:31:38.982Z,8.30
2018-12-23T00:32:38.949Z,7.80
2018-12-23T00:33:38.934Z,7.90
2018-12-23T00:34:38.910Z,8.50
2018-12-23T00:35:38.885Z,8.30
2018-12-23T00:36:38.854Z,8.30
2018-12-23T00:37:38.832Z,8.00
2018-12-23T00:38:38.808Z,8.90
2018-12-23T00:39:38.785Z,8.50
2018-12-23T00:40:38.763Z,8.50
2018-12-23T00:41:38.743Z,8.30
2018-12-23T00:42:38.716Z,9.10
2018-12-23T00:43:38.696Z,9.10
2018-12-23T00:44:38.674Z,8.90
2018-12-23T00:45:38.647Z,8.70
2018-12-23T00:46:38.625Z,9.60
2018-12-23T00:47:38.602Z,8.90
2018-12-23T00:48:38.580Z,9.20
2018-12-23T00:49:38.560Z,8.50
2018-12-23T00:50:38.532Z,9.60
2018-12-23T00:51:38.512Z,9.90
2018-12-23T00:52:38.487Z,8.70
2018-12-23T00:53:38.463Z,9.60
2018-12-23T00:54:38.449Z,9.70
2018-12-23T00:55:38.419Z,9.80
2018-12-23T00:56:38.400Z,9.70
2018-12-23T00:57:38.371Z,9.50
2018-12-23T00:58:38.347Z,10.40
2018-12-23T00:59:38.327Z,8.40
2018-12-23T01:00:38.304Z,8.80
2018-12-23T01:01:38.280Z,8.40
2018-12-23T01:02:38.263Z,8.60
2018-12-23T01:03:38.234Z,8.70
2018-12-23T01:04:38.212Z,7.80
2018-12-23T01:05:38.190Z,8.30
2018-12-23T01:06:38.245Z,8.50
2018-12-23T01:07:38.152Z,8.80
2018-12-23T01:08:38.130Z,8.20
2018-12-23T01:09:38.102Z,9.10
2018-12-23T01:10:38.073Z,9.00
2018-12-23T01:11:38.052Z,8.60
2018-12-23T01:12:38.030Z,7.90
2018-12-23T01:13:38.005Z,8.20
2018-12-23T01:14:38.107Z,8.20
2018-12-23T01:15:37.965Z,8.90
2018-12-23T01:16:37.936Z,9.30
2018-12-23T01:17:37.923Z,8.10
2018-12-23T01:18:37.895Z,8.30
2018-12-23T01:19:37.870Z,7.80
2018-12-23T01:20:37.845Z,7.00
2018-12-23T01:21:37.829Z,7.00
2018-12-23T01:22:37.798Z,7.30
2018-12-23T01:23:37.784Z,8.10
2018-12-23T01:24:37.753Z,7.70
2018-12-23T01:25:37.731Z,7.40
2018-12-23T01:26:37.708Z,6.90
2018-12-23T01:27:37.694Z,7.10
2018-12-23T01:28:37.668Z,6.90
2018-12-23T01:29:37.646Z,6.90
2018-12-23T01:30:37.727Z,7.90
2018-12-23T01:31:37.591Z,6.80
2018-12-23T01:32:37.579Z,7.20
2018-12-23T01:33:37.546Z,7.60
2018-12-23T01:34:37.524Z,7.10
2018-12-23T01:35:37.519Z,6.80
2018-12-23T01:36:37.480Z,7.60
2018-12-23T01:37:37.453Z,7.30
2018-12-23T01:38:37.481Z,6.40
2018-12-23T01:39:37.408Z,7.20
2018-12-23T01:40:37.386Z,7.10
2018-12-23T01:41:37.372Z,6.60
2018-12-23T01:42:37.349Z,7.30
2018-12-23T01:43:37.466Z,7.80
2018-12-23T01:44:37.292Z,7.90
2018-12-23T01:45:37.270Z,7.00
2018-12-23T01:46:37.247Z,6.20
2018-12-23T01:47:37.228Z,6.30
2018-12-23T01:48:37.208Z,6.50
2018-12-23T01:49:37.179Z,6.60
2018-12-23T01:50:37.157Z,6.70
2018-12-23T01:51:37.134Z,6.40
2018-12-23T01:52:37.111Z,6.80
2018-12-23T01:53:37.090Z,7.20
2018-12-23T01:54:37.071Z,6.00
2018-12-23T01:55:37.042Z,7.00
2018-12-23T01:56:37.017Z,6.20
2018-12-23T01:57:36.996Z,7.50
2018-12-23T01:58:36.980Z,6.50
2018-12-23T01:59:36.956Z,6.40
2018-12-23T02:00:36.926Z,6.10
2018-12-23T02:01:36.909Z,6.90
2018-12-23T02:02:36.881Z,7.10
2018-12-23T02:03:36.857Z,6.40
2018-12-23T02:04:36.835Z,6.40
2018-12-23T02:05:36.811Z,6.20
2018-12-23T02:06:36.788Z,7.40
2018-12-23T02:07:36.772Z,7.10
2018-12-23T02:08:36.743Z,7.00
2018-12-23T02:09:36.722Z,6.70
2018-12-23T02:10:36.693Z,6.50
2018-12-23T02:11:36.678Z,7.10
2018-12-23T02:12:36.650Z,6.20
2018-12-23T02:13:36.626Z,6.50
2018-12-23T02:14:36.604Z,6.30
2018-12-23T02:15:36.582Z,6.70
2018-12-23T02:16:36.559Z,6.10
2018-12-23T02:17:36.535Z,6.90
2018-12-23T02:18:36.512Z,6.70
2018-12-23T02:19:36.490Z,7.20
2018-12-23T02:20:36.467Z,7.00
2018-12-23T02:21:36.445Z,6.90
2018-12-23T02:22:36.420Z,7.20
2018-12-23T02:23:36.399Z,7.40
2018-12-23T02:24:36.383Z,6.50
2018-12-23T02:25:36.350Z,7.00
2018-12-23T02:26:36.329Z,6.60
2018-12-23T02:27:36.305Z,6.90
2018-12-23T02:28:36.283Z,7.30
2018-12-23T02:29:36.260Z,6.80
2018-12-23T02:30:36.299Z,6.90
2018-12-23T02:31:36.214Z,7.10
2018-12-23T02:32:36.194Z,6.70
2018-12-23T02:33:36.167Z,6.90
2018-12-23T02:34:36.150Z,6.60
2018-12-23T02:35:36.131Z,6.70
2018-12-23T02:36:36.102Z,6.90
2018-12-23T02:37:36.076Z,7.60
2018-12-23T02:38:36.059Z,6.60
2018-12-23T02:39:36.032Z,6.80
2018-12-23T02:40:36.010Z,7.10
2018-12-23T02:41:35.985Z,6.10
2018-12-23T02:42:35.962Z,6.40
2018-12-23T02:43:35.943Z,7.10
2018-12-23T02:44:35.917Z,7.20
2018-12-23T02:45:35.903Z,7.30
2018-12-23T02:46:35.880Z,6.80
2018-12-23T02:47:35.849Z,6.40
2018-12-23T02:48:35.825Z,7.80
2018-12-23T02:49:35.913Z,6.90
2018-12-23T02:50:35.780Z,6.90
2018-12-23T02:51:35.765Z,7.00
2018-12-23T02:52:35.737Z,7.60
2018-12-23T02:53:35.718Z,7.10
2018-12-23T02:54:35.690Z,7.80
2018-12-23T02:55:35.676Z,7.30
2018-12-23T02:56:35.643Z,7.50
2018-12-23T02:57:35.621Z,7.40
2018-12-23T02:58:35.600Z,7.10
2018-12-23T02:59:35.576Z,7.40
2018-12-23T03:00:35.669Z,7.30
2018-12-23T03:01:35.534Z,7.80
2018-12-23T03:02:35.517Z,7.20
2018-12-23T03:03:35.483Z,7.90
2018-12-23T03:04:35.461Z,7.60
2018-12-23T03:05:35.435Z,8.80
2018-12-23T03:06:35.424Z,8.30
2018-12-23T03:07:35.390Z,8.50
2018-12-23T03:08:35.371Z,8.10
2018-12-23T03:09:35.359Z,8.50
2018-12-23T03:10:35.320Z,8.50
2018-12-23T03:11:35.342Z,8.90
2018-12-23T03:12:35.275Z,8.20
2018-12-23T03:13:35.250Z,8.70
2018-12-23T03:14:35.228Z,8.50
2018-12-23T03:15:35.207Z,8.90
2018-12-23T03:16:35.184Z,8.30
2018-12-23T03:17:35.159Z,9.20
2018-12-23T03:18:35.136Z,9.20
2018-12-23T03:19:35.114Z,9.40
2018-12-23T03:20:35.094Z,9.20
2018-12-23T03:21:35.124Z,9.50
2018-12-23T03:22:35.044Z,9.70
2018-12-23T03:23:35.022Z,9.40
2018-12-23T03:24:35.000Z,9.60
2018-12-23T03:25:34.981Z,10.00
2018-12-23T03:26:34.953Z,10.80
2018-12-23T03:27:34.936Z,10.20
2018-12-23T03:28:34.907Z,10.60
2018-12-23T03:29:34.884Z,9.90
2018-12-23T03:30:34.863Z,10.00
2018-12-23T03:31:34.839Z,10.20
2018-12-23T03:32:34.817Z,10.10
2018-12-23T03:33:34.799Z,10.20
2018-12-23T03:34:34.794Z,9.70
2018-12-23T03:35:34.756Z,10.50
2018-12-23T03:36:34.725Z,11.70
2018-12-23T03:37:34.716Z,10.90
2018-12-23T03:38:34.676Z,10.80
2018-12-23T03:39:34.654Z,11.80
2018-12-23T03:40:34.635Z,11.10
2018-12-23T03:41:34.609Z,12.20
2018-12-23T03:42:34.587Z,11.80
2018-12-23T03:43:34.567Z,11.20
2018-12-23T03:44:34.542Z,11.20
2018-12-23T03:45:34.515Z,12.50
2018-12-23T03:46:34.493Z,12.20
2018-12-23T03:47:34.480Z,12.50
2018-12-23T03:48:34.447Z,12.90
2018-12-23T03:49:34.426Z,12.30
2018-12-23T03:50:34.401Z,12.30
2018-12-23T03:51:34.379Z,12.20
2018-12-23T03:52:34.356Z,12.40
2018-12-23T03:53:34.335Z,13.20
2018-12-23T03:54:34.310Z,12.60
2018-12-23T03:55:34.289Z,13.30
2018-12-23T03:56:34.264Z,12.60
2018-12-23T03:57:34.239Z,13.10
2018-12-23T03:58:34.219Z,12.90
2018-12-23T03:59:34.197Z,13.60
2018-12-23T04:00:34.173Z,13.00
2018-12-23T04:01:34.149Z,13.80
2018-12-23T04:02:34.126Z,12.30
2018-12-23T04:03:34.109Z,13.10
2018-12-23T04:04:34.081Z,14.30
2018-12-23T04:05:34.058Z,13.90
2018-12-23T04:06:34.034Z,14.00
2018-12-23T04:07:34.009Z,15.00
2018-12-23T04:08:34.094Z,15.70
2018-12-23T04:09:33.965Z,15.30
2018-12-23T04:10:33.941Z,15.10
2018-12-23T04:11:33.919Z,14.90
2018-12-23T04:12:33.893Z,15.30
2018-12-23T04:13:33.870Z,14.30
2018-12-23T04:14:33.852Z,15.00
2018-12-23T04:15:33.826Z,15.10
2018-12-23T04:16:33.801Z,16.30
2018-12-23T04:17:33.778Z,15.70
2018-12-23T04:18:33.754Z,16.00
2018-12-23T04:19:33.732Z,14.80
2018-12-23T04:20:33.707Z,16.50
2018-12-23T04:21:33.698Z,16.40
2018-12-23T04:22:33.666Z,16.60
2018-12-23T04:23:33.645Z,16.80
2018-12-23T04:24:33.616Z,17.30
2018-12-23T04:25:33.602Z,16.20
2018-12-23T04:26:33.657Z,16.90
2018-12-23T04:27:33.546Z,16.70
2018-12-23T04:28:33.527Z,17.50
2018-12-23T04:29:33.498Z,18.40
2018-12-23T04:30:33.474Z,17.00
2018-12-23T04:31:33.456Z,18.50
2018-12-23T04:32:33.429Z,17.80
2018-12-23T04:33:33.412Z,19.10
2018-12-23T04:34:33.389Z,19.30
2018-12-23T04:35:33.359Z,19.20
2018-12-23T04:36:34.234Z,20.70
2018-12-23T04:37:33.313Z,20.40
2018-12-23T04:38:33.289Z,19.40
2018-12-23T04:39:33.271Z,20.80
2018-12-23T04:40:33.242Z,21.00
2018-12-23T04:41:33.219Z,21.50
2018-12-23T04:42:33.196Z,20.70
2018-12-23T04:43:33.174Z,21.80
2018-12-23T04:44:33.151Z,21.50
2018-12-23T04:45:33.136Z,22.40
2018-12-23T04:46:33.105Z,22.90
2018-12-23T04:47:33.081Z,21.10
2018-12-23T04:48:33.057Z,22.50
2018-12-23T04:49:33.032Z,21.90
2018-12-23T04:50:33.010Z,22.80
2018-12-23T04:51:32.986Z,23.20
2018-12-23T04:52:32.964Z,22.50
2018-12-23T04:53:32.941Z,23.10
2018-12-23T04:54:32.916Z,23.40
2018-12-23T04:55:32.898Z,24.50
2018-12-23T04:56:32.870Z,23.70
2018-12-23T04:57:32.846Z,23.80
2018-12-23T04:58:32.823Z,24.60
2018-12-23T04:59:32.799Z,24.90
2018-12-23T05:00:32.777Z,25.90
2018-12-23T05:01:32.763Z,24.60
2018-12-23T05:02:32.731Z,25.40
2018-12-23T05:03:42.367Z,24.90
2018-12-23T05:04:32.684Z,25.10
2018-12-23T05:05:32.660Z,25.20
2018-12-23T05:06:32.639Z,26.10
2018-12-23T05:07:32.614Z,25.10
2018-12-23T05:08:32.591Z,25.00
2018-12-23T05:09:32.568Z,25.40
2018-12-23T05:10:32.545Z,26.40
2018-12-23T05:11:32.529Z,26.50
2018-12-23T05:12:32.498Z,25.50
2018-12-23T05:13:34.374Z,25.40
2018-12-23T05:14:32.451Z,26.70
2018-12-23T05:15:32.479Z,26.90
2018-12-23T05:16:32.406Z,26.30
2018-12-23T05:17:32.381Z,27.30
2018-12-23T05:18:32.363Z,25.90
2018-12-23T05:19:32.337Z,25.90
2018-12-23T05:20:32.312Z,27.40
2018-12-23T05:21:32.291Z,28.30
2018-12-23T05:22:32.265Z,27.80
2018-12-23T05:23:32.244Z,26.50
2018-12-23T05:24:32.220Z,27.80
2018-12-23T05:25:32.196Z,28.40
2018-12-23T05:26:32.173Z,27.50
2018-12-23T05:27:32.151Z,27.60
2018-12-23T05:28:32.127Z,27.80
2018-12-23T05:29:32.103Z,28.30
2018-12-23T05:30:32.083Z,26.90
2018-12-23T05:31:32.058Z,26.40
2018-12-23T05:32:32.040Z,27.20
2018-12-23T05:33:32.009Z,27.00
2018-12-23T05:34:31.989Z,27.30
2018-12-23T05:35:31.965Z,27.10
2018-12-23T05:36:31.942Z,26.00
2018-12-23T05:37:31.918Z,27.90
2018-12-23T05:38:31.900Z,26.50
2018-12-23T05:39:31.873Z,27.80
2018-12-23T05:40:31.850Z,25.80
2018-12-23T05:41:31.825Z,27.40
2018-12-23T05:42:31.801Z,27.50
2018-12-23T05:43:31.839Z,27.80
2018-12-23T05:44:31.760Z,28.40
2018-12-23T05:45:31.731Z,26.60
2018-12-23T05:46:31.710Z,27.10
2018-12-23T05:47:31.688Z,27.50
2018-12-23T05:48:31.664Z,28.10
2018-12-23T05:49:31.647Z,27.20
2018-12-23T05:50:31.624Z,27.00
2018-12-23T05:51:31.596Z,28.40
2018-12-23T05:52:31.572Z,27.40
2018-12-23T05:53:31.548Z,27.90
2018-12-23T05:54:31.525Z,27.30
2018-12-23T05:55:31.503Z,27.50
2018-12-23T05:56:31.487Z,27.10
2018-12-23T05:57:31.455Z,25.80
2018-12-23T05:58:31.435Z,27.40
2018-12-23T05:59:31.414Z,27.50
2018-12-23T06:00:31.387Z,28.20
2018-12-23T06:01:31.363Z,27.90
2018-12-23T06:02:31.341Z,26.40
2018-12-23T06:03:31.320Z,27.30
2018-12-23T06:04:31.297Z,27.10
2018-12-23T06:05:31.273Z,27.30
2018-12-23T06:06:31.256Z,27.40
2018-12-23T06:07:31.226Z,27.70
2018-12-23T06:08:31.204Z,27.30
2018-12-23T06:09:31.185Z,28.70
2018-12-23T06:10:31.158Z,27.50
2018-12-23T06:11:31.136Z,28.20
2018-12-23T06:12:31.120Z,29.90
2018-12-23T06:13:31.340Z,28.50
2018-12-23T06:14:31.065Z,27.60
2018-12-23T06:15:31.047Z,29.90
2018-12-23T06:16:31.020Z,28.20
2018-12-23T06:17:30.996Z,29.00
2018-12-23T06:18:30.972Z,28.90
2018-12-23T06:19:30.951Z,28.40
2018-12-23T06:20:30.937Z,29.30
2018-12-23T06:21:30.917Z,29.50
2018-12-23T06:22:30.882Z,28.50
2018-12-23T06:23:30.860Z,28.50
2018-12-23T06:24:30.835Z,28.00
2018-12-23T06:25:30.813Z,28.70
2018-12-23T06:26:30.790Z,29.80
2018-12-23T06:27:30.769Z,29.70
2018-12-23T06:28:30.744Z,30.40
2018-12-23T06:29:30.726Z,29.20
2018-12-23T06:30:30.698Z,28.70
2018-12-23T06:31:30.682Z,29.50
2018-12-23T06:32:30.652Z,29.40
2018-12-23T06:33:30.632Z,28.80
2018-12-23T06:34:30.605Z,29.00
2018-12-23T06:35:30.583Z,28.00
2018-12-23T06:36:30.570Z,29.20
2018-12-23T06:37:30.537Z,30.50
2018-12-23T06:38:30.531Z,28.20
2018-12-23T06:39:30.501Z,27.60
2018-12-23T06:40:30.469Z,27.30
2018-12-23T06:41:30.446Z,28.00
2018-12-23T06:42:30.425Z,28.30
2018-12-23T06:43:30.400Z,27.60
2018-12-23T06:44:30.377Z,27.90
2018-12-23T06:45:30.354Z,27.30
2018-12-23T06:46:30.332Z,28.90
2018-12-23T06:47:30.311Z,27.00
2018-12-23T06:48:30.401Z,29.40
2018-12-23T06:49:30.263Z,28.20
2018-12-23T06:50:30.240Z,28.70
2018-12-23T06:51:30.216Z,28.80
2018-12-23T06:52:30.205Z,28.50
2018-12-23T06:53:30.179Z,30.70
2018-12-23T06:54:30.148Z,28.30
2018-12-23T06:55:30.125Z,29.90
2018-12-23T06:56:30.102Z,28.70
2018-12-23T06:57:30.080Z,27.70
2018-12-23T06:58:30.056Z,27.60
2018-12-23T06:59:30.035Z,28.10
2018-12-23T07:00:30.011Z,28.30
2018-12-23T07:01:29.990Z,29.10
2018-12-23T07:02:29.966Z,29.00
2018-12-23T07:03:29.943Z,28.10
2018-12-23T07:04:29.927Z,28.00
2018-12-23T07:05:29.895Z,28.00
2018-12-23T07:06:29.873Z,28.20
2018-12-23T07:07:29.852Z,27.70
2018-12-23T07:08:29.833Z,28.40
2018-12-23T07:09:29.804Z,27.10
2018-12-23T07:10:29.783Z,27.20
2018-12-23T07:11:29.760Z,27.60
2018-12-23T07:12:29.738Z,27.30
2018-12-23T07:13:29.721Z,27.20
2018-12-23T07:14:29.698Z,27.20
2018-12-23T07:15:29.669Z,27.50
2018-12-23T07:16:29.655Z,27.80
2018-12-23T07:17:29.622Z,24.70
2018-12-23T07:18:29.607Z,25.60
2018-12-23T07:19:29.575Z,25.40
2018-12-23T07:20:29.553Z,25.80
2018-12-23T07:21:29.539Z,26.40
2018-12-23T07:22:29.523Z,27.10
2018-12-23T07:23:29.487Z,25.90
2018-12-23T07:24:29.472Z,26.70
2018-12-23T07:25:29.437Z,26.10
2018-12-23T07:26:29.414Z,26.90
2018-12-23T07:27:29.394Z,27.80
2018-12-23T07:28:29.371Z,26.90
2018-12-23T07:29:29.345Z,26.40
2018-12-23T07:30:29.332Z,27.00
2018-12-23T07:31:29.301Z,27.90
2018-12-23T07:32:29.277Z,27.70
2018-12-23T07:33:29.260Z,27.60
2018-12-23T07:34:29.240Z,26.60
2018-12-23T07:35:29.254Z,26.20
2018-12-23T07:36:29.187Z,26.40
2018-12-23T07:37:29.164Z,25.80
2018-12-23T07:38:29.141Z,27.00
2018-12-23T07:39:29.122Z,27.20
2018-12-23T07:40:29.095Z,26.70
2018-12-23T07:41:29.136Z,27.90
2018-12-23T07:42:29.051Z,26.30
2018-12-23T07:43:29.040Z,26.00
2018-12-23T07:44:29.006Z,26.60
2018-12-23T07:45:28.981Z,25.20
2018-12-23T07:46:28.966Z,25.70
2018-12-23T07:47:28.935Z,27.10
2018-12-23T07:48:28.913Z,25.30
2018-12-23T07:49:28.896Z,26.10
2018-12-23T07:50:28.874Z,25.80
2018-12-23T07:51:28.844Z,25.70
2018-12-23T07:52:28.823Z,25.40
2018-12-23T07:53:28.805Z,25.20
2018-12-23T07:54:28.786Z,25.00
2018-12-23T07:55:28.759Z,24.40
2018-12-23T07:56:28.730Z,24.40
2018-12-23T07:57:28.708Z,24.70
2018-12-23T07:58:28.687Z,25.20
2018-12-23T07:59:28.691Z,25.50
2018-12-23T08:00:28.639Z,26.10
2018-12-23T08:01:28.617Z,24.90
2018-12-23T08:02:28.596Z,24.70
2018-12-23T08:03:28.577Z,25.60
2018-12-23T08:04:28.551Z,25.60
2018-12-23T08:05:28.531Z,24.20
2018-12-23T08:06:28.505Z,24.50
2018-12-23T08:07:35.946Z,24.10
2018-12-23T08:08:28.463Z,24.50
2018-12-23T08:09:28.561Z,24.30
2018-12-23T08:10:28.413Z,24.00
2018-12-23T08:11:28.390Z,24.20
2018-12-23T08:12:28.365Z,24.60
2018-12-23T08:13:28.353Z,24.10
2018-12-23T08:14:28.321Z,23.00
2018-12-23T08:15:28.304Z,23.70
2018-12-23T08:16:28.282Z,24.80
2018-12-23T08:17:28.250Z,24.50
2018-12-23T08:18:28.227Z,23.70
2018-12-23T08:19:28.205Z,24.00
2018-12-23T08:20:28.183Z,24.60
2018-12-23T08:21:28.161Z,23.80
2018-12-23T08:22:28.137Z,24.80
2018-12-23T08:23:28.117Z,23.80
2018-12-23T08:24:28.094Z,23.40
2018-12-23T08:25:35.430Z,24.50
2018-12-23T08:26:28.046Z,24.20
2018-12-23T08:27:28.039Z,24.20
2018-12-23T08:28:28.001Z,23.10
2018-12-23T08:29:27.977Z,22.20
2018-12-23T08:30:27.954Z,23.60
2018-12-23T08:31:27.932Z,23.00
2018-12-23T08:32:27.910Z,22.30
2018-12-23T08:33:27.897Z,22.80
2018-12-23T08:34:27.864Z,23.70
2018-12-23T08:35:27.842Z,22.10
2018-12-23T08:36:27.819Z,23.50
2018-12-23T08:37:27.805Z,23.60
2018-12-23T08:38:27.773Z,22.90
2018-12-23T08:39:27.750Z,24.20
2018-12-23T08:40:27.740Z,24.60
2018-12-23T08:41:27.704Z,23.80
2018-12-23T08:42:27.684Z,24.70
2018-12-23T08:43:27.668Z,24.70
2018-12-23T08:44:27.636Z,24.60
2018-12-23T08:45:27.614Z,25.00
2018-12-23T08:46:27.595Z,24.90
2018-12-23T08:47:27.571Z,24.10
2018-12-23T08:48:27.558Z,24.60
2018-12-23T08:49:27.526Z,25.40
2018-12-23T08:50:27.505Z,24.90
2018-12-23T08:51:27.481Z,25.20
2018-12-23T08:52:27.457Z,25.20
2018-12-23T08:53:27.435Z,23.40
2018-12-23T08:54:27.413Z,23.90
2018-12-23T08:55:27.391Z,25.10
2018-12-23T08:56:27.367Z,23.90
2018-12-23T08:57:27.346Z,23.70
2018-12-23T08:58:27.323Z,23.30
2018-12-23T08:59:27.299Z,24.70
2018-12-23T09:00:27.279Z,25.80
2018-12-23T09:01:27.262Z,25.10
2018-12-23T09:02:27.233Z,24.40
2018-12-23T09:03:27.213Z,23.70
2018-12-23T09:04:27.188Z,24.60
2018-12-23T09:05:27.165Z,24.90
2018-12-23T09:06:27.141Z,26.20
2018-12-23T09:07:27.119Z,25.30
2018-12-23T09:08:27.105Z,25.90
2018-12-23T09:09:27.084Z,25.90
2018-12-23T09:10:27.051Z,25.20
2018-12-23T09:11:27.037Z,25.80
2018-12-23T09:12:27.007Z,26.20
2018-12-23T09:13:27.007Z,25.70
2018-12-23T09:14:26.966Z,25.00
2018-12-23T09:15:26.940Z,25.10
2018-12-23T09:16:26.925Z,25.20
2018-12-23T09:17:26.903Z,25.50
2018-12-23T09:18:26.872Z,26.70
2018-12-23T09:19:26.851Z,25.60
2018-12-23T09:20:26.827Z,23.70
2018-12-23T09:21:26.804Z,24.50
2018-12-23T09:22:26.781Z,25.50
2018-12-23T09:23:26.759Z,24.80
2018-12-23T09:24:26.744Z,24.90
2018-12-23T09:25:26.717Z,23.90
2018-12-23T09:26:26.695Z,24.30
2018-12-23T09:27:26.675Z,25.30
2018-12-23T09:28:26.649Z,26.70
2018-12-23T09:29:26.629Z,24.60
2018-12-23T09:30:26.604Z,25.80
2018-12-23T09:31:26.659Z,25.00
2018-12-23T09:32:26.566Z,24.60
2018-12-23T09:33:26.534Z,25.70
2018-12-23T09:34:26.513Z,25.50
2018-12-23T09:35:26.490Z,25.50
2018-12-23T09:36:26.468Z,24.50
2018-12-23T09:37:26.447Z,24.60
2018-12-23T09:38:26.431Z,25.70
2018-12-23T09:39:26.401Z,23.90
2018-12-23T09:40:26.378Z,23.90
2018-12-23T09:41:26.356Z,25.30
2018-12-23T09:42:26.347Z,25.70
2018-12-23T09:43:26.312Z,25.10
2018-12-23T09:44:26.296Z,24.30
2018-12-23T09:45:26.266Z,23.70
2018-12-23T09:46:26.245Z,25.40
2018-12-23T09:47:26.225Z,23.80
2018-12-23T09:48:26.206Z,24.30
2018-12-23T09:49:26.191Z,23.70
2018-12-23T09:50:26.155Z,24.40
2018-12-23T09:51:26.197Z,24.70
2018-12-23T09:52:26.112Z,23.70
2018-12-23T09:53:26.087Z,25.70
2018-12-23T09:54:26.066Z,23.40
2018-12-23T09:55:26.044Z,24.10
2018-12-23T09:56:26.077Z,23.20
2018-12-23T09:57:26.003Z,23.50
2018-12-23T09:58:25.976Z,22.80
2018-12-23T09:59:25.954Z,23.80
2018-12-23T10:00:25.936Z,22.90
2018-12-23T10:01:25.917Z,22.30
2018-12-23T10:02:25.894Z,23.00
2018-12-23T10:03:25.865Z,23.90
2018-12-23T10:04:25.850Z,24.20
2018-12-23T10:05:25.823Z,22.80
2018-12-23T10:06:25.816Z,23.00
2018-12-23T10:07:25.777Z,22.50
2018-12-23T10:08:25.758Z,21.70
2018-12-23T10:09:25.731Z,21.90
2018-12-23T10:10:28.513Z,23.70
2018-12-23T10:11:25.695Z,22.60
2018-12-23T10:12:25.678Z,22.60
2018-12-23T10:13:25.698Z,22.40
2018-12-23T10:14:25.622Z,20.80
2018-12-23T10:15:25.623Z,23.40
2018-12-23T10:16:25.578Z,23.60
2018-12-23T10:17:25.555Z,23.90
2018-12-23T10:18:25.533Z,22.80
2018-12-23T10:19:25.520Z,22.30
2018-12-23T10:20:25.495Z,23.00
2018-12-23T10:21:25.563Z,21.70
2018-12-23T10:22:25.441Z,23.70
2018-12-23T10:23:25.421Z,22.80
2018-12-23T10:24:25.403Z,23.90
2018-12-23T10:25:25.375Z,24.10
2018-12-23T10:26:25.377Z,23.30
2018-12-23T10:27:25.333Z,23.20
2018-12-23T10:28:25.313Z,24.90
2018-12-23T10:29:25.431Z,23.90
2018-12-23T10:30:25.266Z,23.60
2018-12-23T10:31:25.245Z,24.30
2018-12-23T10:32:25.229Z,23.50
2018-12-23T10:33:25.199Z,25.00
2018-12-23T10:34:25.187Z,24.60
2018-12-23T10:35:25.159Z,25.80
2018-12-23T10:36:25.141Z,24.70
2018-12-23T10:37:25.108Z,24.10
2018-12-23T10:38:25.091Z,26.50
2018-12-23T10:39:25.067Z,24.90
2018-12-23T10:40:25.057Z,24.60
2018-12-23T10:41:25.031Z,25.10
2018-12-23T10:42:24.999Z,24.20
2018-12-23T10:43:24.981Z,24.80
2018-12-23T10:44:24.971Z,25.10
2018-12-23T10:45:24.939Z,24.90
2018-12-23T10:46:24.911Z,26.20
2018-12-23T10:47:24.898Z,24.70
2018-12-23T10:48:24.868Z,25.00
2018-12-23T10:49:24.845Z,23.70
2018-12-23T10:50:24.823Z,24.40
2018-12-23T10:51:24.801Z,25.70
2018-12-23T10:52:24.796Z,24.40
2018-12-23T10:53:24.757Z,23.20
2018-12-23T10:54:24.739Z,24.20
2018-12-23T10:55:24.713Z,26.10
2018-12-23T10:56:24.693Z,24.80
2018-12-23T10:57:24.685Z,25.50
2018-12-23T10:58:24.749Z,24.60
2018-12-23T10:59:24.637Z,25.20
2018-12-23T11:00:24.608Z,24.70
2018-12-23T11:01:24.580Z,26.20
2018-12-23T11:02:24.586Z,26.40
2018-12-23T11:03:24.545Z,24.60
2018-12-23T11:04:24.515Z,25.00
2018-12-23T11:05:24.493Z,25.70
2018-12-23T11:06:24.472Z,25.10
2018-12-23T11:07:24.458Z,25.50
2018-12-23T11:08:27.110Z,26.50
2018-12-23T11:09:24.404Z,25.20
2018-12-23T11:10:24.394Z,25.70
2018-12-23T11:11:24.363Z,25.60
2018-12-23T11:12:24.340Z,25.30
2018-12-23T11:13:24.432Z,26.10
2018-12-23T11:14:24.296Z,26.10
2018-12-23T11:15:24.273Z,26.40
2018-12-23T11:16:24.253Z,26.00
2018-12-23T11:17:24.236Z,26.20
2018-12-23T11:18:24.208Z,26.10
2018-12-23T11:19:24.184Z,26.10
2018-12-23T11:20:24.172Z,26.00
2018-12-23T11:21:24.142Z,26.70
2018-12-23T11:22:24.118Z,26.50
2018-12-23T11:23:24.098Z,26.60
2018-12-23T11:24:24.077Z,27.60
2018-12-23T11:25:24.057Z,26.60
2018-12-23T11:26:24.042Z,26.30
2018-12-23T11:27:24.011Z,26.70
2018-12-23T11:28:23.990Z,26.70
2018-12-23T11:29:23.982Z,25.30
2018-12-23T11:30:23.995Z,25.20
2018-12-23T11:31:23.931Z,26.40
2018-12-23T11:32:23.929Z,24.70
2018-12-23T11:33:23.879Z,25.70
2018-12-23T11:34:23.859Z,27.40
2018-12-23T11:35:23.853Z,25.40
2018-12-23T11:36:23.851Z,25.80
2018-12-23T11:37:23.803Z,26.30
2018-12-23T11:38:23.776Z,25.40
2018-12-23T11:39:23.761Z,25.90
2018-12-23T11:40:23.732Z,26.40
2018-12-23T11:41:23.704Z,25.60
2018-12-23T11:42:23.683Z,26.80
2018-12-23T11:43:23.673Z,25.80
2018-12-23T11:44:23.644Z,26.60
2018-12-23T11:45:23.619Z,28.30
2018-12-23T11:46:23.607Z,27.90
2018-12-23T11:47:23.698Z,27.30
2018-12-23T11:48:23.551Z,26.30
2018-12-23T11:49:23.529Z,26.50
2018-12-23T11:50:23.515Z,27.40
2018-12-23T11:51:23.494Z,26.60
2018-12-23T11:52:23.462Z,27.90
2018-12-23T11:53:23.449Z,27.40
2018-12-23T11:54:23.420Z,25.40
2018-12-23T11:55:23.397Z,25.70
2018-12-23T11:56:23.395Z,24.90
2018-12-23T11:57:23.353Z,24.30
2018-12-23T11:58:23.352Z,24.50
2018-12-23T11:59:23.323Z,24.90
2018-12-23T12:00:23.290Z,24.30
2018-12-23T12:01:23.269Z,23.70
2018-12-23T12:02:23.247Z,23.50
2018-12-23T12:03:23.226Z,23.80
2018-12-23T12:04:23.203Z,24.40
2018-12-23T12:05:23.183Z,23.60
2018-12-23T12:06:23.163Z,23.70
2018-12-23T12:07:23.145Z,24.50
2018-12-23T12:08:23.116Z,22.70
2018-12-23T12:09:23.094Z,21.60
2018-12-23T12:10:23.072Z,20.80
2018-12-23T12:11:23.052Z,21.40
2018-12-23T12:12:23.051Z,20.10
2018-12-23T12:13:23.014Z,19.10
2018-12-23T12:14:23.015Z,19.90
2018-12-23T12:15:22.965Z,18.80
2018-12-23T12:16:22.949Z,17.40
2018-12-23T12:17:22.925Z,15.30
2018-12-23T12:18:22.900Z,13.50
2018-12-23T12:19:22.876Z,14.20
2018-12-23T12:20:22.871Z,13.00
2018-12-23T12:21:22.831Z,13.50
2018-12-23T12:22:22.810Z,10.70
2018-12-23T12:23:22.793Z,11.00
2018-12-23T12:24:22.767Z,11.00
2018-12-23T12:25:22.744Z,9.50
2018-12-23T12:26:22.722Z,9.00
2018-12-23T12:27:22.700Z,9.70
2018-12-23T12:28:22.688Z,9.60
2018-12-23T12:29:22.657Z,9.60
2018-12-23T12:30:22.634Z,9.60
2018-12-23T12:31:22.611Z,9.50
2018-12-23T12:32:22.591Z,9.20
2018-12-23T12:33:22.605Z,9.50
2018-12-23T12:34:22.545Z,9.00
2018-12-23T12:35:22.527Z,8.50
2018-12-23T12:36:22.511Z,8.60
2018-12-23T12:37:22.481Z,9.10
2018-12-23T12:38:22.458Z,9.60
2018-12-23T12:39:22.438Z,7.70
2018-12-23T12:40:22.415Z,8.10
2018-12-23T12:41:22.398Z,7.70
2018-12-23T12:42:22.378Z,7.90
2018-12-23T12:43:22.349Z,8.10
2018-12-23T12:44:22.325Z,7.70
2018-12-23T12:45:22.303Z,7.60
2018-12-23T12:46:22.280Z,8.30
2018-12-23T12:47:22.268Z,8.40
2018-12-23T12:48:22.250Z,8.10
2018-12-23T12:49:22.213Z,7.90
2018-12-23T12:50:22.193Z,8.20
2018-12-23T12:51:22.171Z,8.50
2018-12-23T12:52:22.151Z,7.60
2018-12-23T12:53:22.128Z,7.90
2018-12-23T12:54:22.103Z,7.80
2018-12-23T12:55:22.083Z,8.40
2018-12-23T12:56:22.063Z,7.90
2018-12-23T12:57:22.046Z,8.30
2018-12-23T12:58:22.068Z,8.40
2018-12-23T12:59:21.994Z,9.10
2018-12-23T13:00:21.972Z,8.60